sensor_id;sensor_type;location;lat;lon;timestamp;P1;durP1;ratioP1;P2;durP2;ratioP2
72037;SDS011;59900;50.788;12.904;2022-07-06T00:01:32;5.83;;;3.10;;
72037;SDS011;59900;50.788;12.904;2022-07-06T00:03:57;6.30;;;3.20;;
72037;SDS011;59900;50.788;12.904;2022-07-06T00:06:23;6.30;;;3.33;;
72037;SDS011;59900;50.788;12.904;2022-07-06T00:08:48;6.40;;;3.00;;
72037;SDS011;59900;50.788;12.904;2022-07-06T00:11:14;8.33;;;3.10;;
72037;SDS011;59900;50.788;12.904;2022-07-06T00:13:39;4.70;;;3.00;;
72037;SDS011;59900;50.788;12.904;2022-07-06T00:16:04;5.27;;;2.97;;
72037;SDS011;59900;50.788;12.904;2022-07-06T00:18:30;5.30;;;2.97;;
72037;SDS011;59900;50.788;12.904;2022-07-06T00:20:55;5.83;;;2.93;;
72037;SDS011;59900;50.788;12.904;2022-07-06T00:23:21;5.97;;;3.40;;
72037;SDS011;59900;50.788;12.904;2022-07-06T00:25:46;6.10;;;2.70;;
72037;SDS011;59900;50.788;12.904;2022-07-06T00:28:13;6.68;;;2.92;;
72037;SDS011;59900;50.788;12.904;2022-07-06T00:30:38;4.47;;;2.70;;
72037;SDS011;59900;50.788;12.904;2022-07-06T00:33:04;5.20;;;2.70;;
72037;SDS011;59900;50.788;12.904;2022-07-06T00:35:29;4.63;;;2.70;;
72037;SDS011;59900;50.788;12.904;2022-07-06T00:37:54;5.30;;;2.83;;
72037;SDS011;59900;50.788;12.904;2022-07-06T00:40:20;5.80;;;2.80;;
72037;SDS011;59900;50.788;12.904;2022-07-06T00:42:46;5.77;;;2.70;;
72037;SDS011;59900;50.788;12.904;2022-07-06T00:45:13;5.45;;;2.72;;
72037;SDS011;59900;50.788;12.904;2022-07-06T00:47:39;5.03;;;2.83;;
72037;SDS011;59900;50.788;12.904;2022-07-06T00:50:06;7.07;;;2.78;;
72037;SDS011;59900;50.788;12.904;2022-07-06T00:52:39;5.17;;;2.50;;
72037;SDS011;59900;50.788;12.904;2022-07-06T00:55:05;5.60;;;2.72;;
72037;SDS011;59900;50.788;12.904;2022-07-06T00:57:30;6.57;;;2.90;;
72037;SDS011;59900;50.788;12.904;2022-07-06T00:59:55;5.15;;;2.75;;
72037;SDS011;59900;50.788;12.904;2022-07-06T01:02:21;7.67;;;3.20;;
72037;SDS011;59900;50.788;12.904;2022-07-06T01:04:47;5.25;;;2.80;;
72037;SDS011;59900;50.788;12.904;2022-07-06T01:07:13;5.53;;;2.90;;
72037;SDS011;59900;50.788;12.904;2022-07-06T01:09:38;5.83;;;2.90;;
72037;SDS011;59900;50.788;12.904;2022-07-06T01:12:04;4.43;;;2.72;;
72037;SDS011;59900;50.788;12.904;2022-07-06T01:14:29;5.70;;;2.93;;
72037;SDS011;59900;50.788;12.904;2022-07-06T01:16:55;5.00;;;2.80;;
72037;SDS011;59900;50.788;12.904;2022-07-06T01:19:21;5.23;;;2.70;;
72037;SDS011;59900;50.788;12.904;2022-07-06T01:21:47;5.45;;;2.90;;
72037;SDS011;59900;50.788;12.904;2022-07-06T01:24:12;5.53;;;2.70;;
72037;SDS011;59900;50.788;12.904;2022-07-06T01:26:38;5.72;;;3.25;;
72037;SDS011;59900;50.788;12.904;2022-07-06T01:29:03;4.53;;;2.90;;
72037;SDS011;59900;50.788;12.904;2022-07-06T01:31:28;5.17;;;2.53;;
72037;SDS011;59900;50.788;12.904;2022-07-06T01:33:55;6.60;;;2.90;;
72037;SDS011;59900;50.788;12.904;2022-07-06T01:36:21;5.97;;;3.50;;
72037;SDS011;59900;50.788;12.904;2022-07-06T01:38:47;5.05;;;2.88;;
72037;SDS011;59900;50.788;12.904;2022-07-06T01:41:17;5.70;;;3.10;;
72037;SDS011;59900;50.788;12.904;2022-07-06T01:43:44;4.70;;;2.83;;
72037;SDS011;59900;50.788;12.904;2022-07-06T01:46:10;6.22;;;3.33;;
72037;SDS011;59900;50.788;12.904;2022-07-06T01:48:36;6.17;;;3.00;;
72037;SDS011;59900;50.788;12.904;2022-07-06T01:51:01;6.07;;;3.38;;
72037;SDS011;59900;50.788;12.904;2022-07-06T01:53:27;5.32;;;3.17;;
72037;SDS011;59900;50.788;12.904;2022-07-06T01:55:53;5.40;;;3.07;;
72037;SDS011;59900;50.788;12.904;2022-07-06T01:58:18;5.37;;;3.00;;
72037;SDS011;59900;50.788;12.904;2022-07-06T02:00:43;6.13;;;3.17;;
72037;SDS011;59900;50.788;12.904;2022-07-06T02:03:08;5.80;;;3.03;;
72037;SDS011;59900;50.788;12.904;2022-07-06T02:05:34;6.43;;;3.20;;
72037;SDS011;59900;50.788;12.904;2022-07-06T02:07:59;6.37;;;3.40;;
72037;SDS011;59900;50.788;12.904;2022-07-06T02:10:24;8.77;;;3.30;;
72037;SDS011;59900;50.788;12.904;2022-07-06T02:12:49;6.85;;;4.22;;
72037;SDS011;59900;50.788;12.904;2022-07-06T02:15:15;7.00;;;4.20;;
72037;SDS011;59900;50.788;12.904;2022-07-06T02:17:40;4.73;;;2.90;;
72037;SDS011;59900;50.788;12.904;2022-07-06T02:20:05;6.37;;;3.23;;
72037;SDS011;59900;50.788;12.904;2022-07-06T02:22:31;6.37;;;3.60;;
72037;SDS011;59900;50.788;12.904;2022-07-06T02:24:56;5.53;;;3.45;;
72037;SDS011;59900;50.788;12.904;2022-07-06T02:27:21;6.53;;;3.40;;
72037;SDS011;59900;50.788;12.904;2022-07-06T02:29:47;5.50;;;3.33;;
72037;SDS011;59900;50.788;12.904;2022-07-06T02:32:12;6.63;;;3.50;;
72037;SDS011;59900;50.788;12.904;2022-07-06T02:34:37;6.90;;;3.80;;
72037;SDS011;59900;50.788;12.904;2022-07-06T02:37:03;7.70;;;4.10;;
72037;SDS011;59900;50.788;12.904;2022-07-06T02:39:28;9.27;;;3.47;;
72037;SDS011;59900;50.788;12.904;2022-07-06T02:41:53;7.95;;;3.67;;
72037;SDS011;59900;50.788;12.904;2022-07-06T02:44:19;6.37;;;3.90;;
72037;SDS011;59900;50.788;12.904;2022-07-06T02:46:44;6.83;;;3.63;;
72037;SDS011;59900;50.788;12.904;2022-07-06T02:49:09;6.37;;;3.60;;
72037;SDS011;59900;50.788;12.904;2022-07-06T02:51:34;5.73;;;3.53;;
72037;SDS011;59900;50.788;12.904;2022-07-06T02:53:59;7.67;;;3.53;;
72037;SDS011;59900;50.788;12.904;2022-07-06T02:56:25;6.27;;;3.57;;
72037;SDS011;59900;50.788;12.904;2022-07-06T02:58:50;5.97;;;3.80;;
72037;SDS011;59900;50.788;12.904;2022-07-06T03:01:15;7.77;;;3.50;;
72037;SDS011;59900;50.788;12.904;2022-07-06T03:03:40;5.80;;;3.97;;
72037;SDS011;59900;50.788;12.904;2022-07-06T03:06:06;6.63;;;3.73;;
72037;SDS011;59900;50.788;12.904;2022-07-06T03:08:31;6.37;;;3.37;;
72037;SDS011;59900;50.788;12.904;2022-07-06T03:10:56;9.10;;;4.27;;
72037;SDS011;59900;50.788;12.904;2022-07-06T03:13:22;8.33;;;3.57;;
72037;SDS011;59900;50.788;12.904;2022-07-06T03:15:47;8.43;;;3.60;;
72037;SDS011;59900;50.788;12.904;2022-07-06T03:18:12;6.97;;;4.00;;
72037;SDS011;59900;50.788;12.904;2022-07-06T03:20:37;9.33;;;4.37;;
72037;SDS011;59900;50.788;12.904;2022-07-06T03:23:03;8.30;;;4.17;;
72037;SDS011;59900;50.788;12.904;2022-07-06T03:25:28;8.07;;;3.90;;
72037;SDS011;59900;50.788;12.904;2022-07-06T03:27:53;8.43;;;4.05;;
72037;SDS011;59900;50.788;12.904;2022-07-06T03:30:18;7.70;;;4.17;;
72037;SDS011;59900;50.788;12.904;2022-07-06T03:32:44;8.43;;;4.10;;
72037;SDS011;59900;50.788;12.904;2022-07-06T03:35:09;10.53;;;4.27;;
72037;SDS011;59900;50.788;12.904;2022-07-06T03:37:34;8.13;;;4.13;;
72037;SDS011;59900;50.788;12.904;2022-07-06T03:39:59;8.67;;;4.20;;
72037;SDS011;59900;50.788;12.904;2022-07-06T03:42:25;7.20;;;4.40;;
72037;SDS011;59900;50.788;12.904;2022-07-06T03:44:50;12.37;;;4.50;;
72037;SDS011;59900;50.788;12.904;2022-07-06T03:47:15;9.60;;;4.77;;
72037;SDS011;59900;50.788;12.904;2022-07-06T03:49:40;7.63;;;4.70;;
72037;SDS011;59900;50.788;12.904;2022-07-06T03:52:06;6.93;;;4.43;;
72037;SDS011;59900;50.788;12.904;2022-07-06T03:54:31;14.23;;;4.13;;
72037;SDS011;59900;50.788;12.904;2022-07-06T03:56:56;9.83;;;3.87;;
72037;SDS011;59900;50.788;12.904;2022-07-06T03:59:21;7.40;;;4.07;;
72037;SDS011;59900;50.788;12.904;2022-07-06T04:01:47;21.57;;;5.40;;
72037;SDS011;59900;50.788;12.904;2022-07-06T04:04:12;9.00;;;4.50;;
72037;SDS011;59900;50.788;12.904;2022-07-06T04:06:37;7.13;;;4.00;;
72037;SDS011;59900;50.788;12.904;2022-07-06T04:09:03;9.80;;;4.10;;
72037;SDS011;59900;50.788;12.904;2022-07-06T04:11:28;6.17;;;3.80;;
72037;SDS011;59900;50.788;12.904;2022-07-06T04:13:54;8.13;;;3.93;;
72037;SDS011;59900;50.788;12.904;2022-07-06T04:16:19;6.57;;;3.80;;
72037;SDS011;59900;50.788;12.904;2022-07-06T04:18:44;8.20;;;3.97;;
72037;SDS011;59900;50.788;12.904;2022-07-06T04:21:10;8.03;;;4.30;;
72037;SDS011;59900;50.788;12.904;2022-07-06T04:23:35;6.57;;;3.80;;
72037;SDS011;59900;50.788;12.904;2022-07-06T04:26:01;7.57;;;4.30;;
72037;SDS011;59900;50.788;12.904;2022-07-06T04:28:26;7.87;;;4.13;;
72037;SDS011;59900;50.788;12.904;2022-07-06T04:30:51;9.10;;;4.33;;
72037;SDS011;59900;50.788;12.904;2022-07-06T04:33:16;7.90;;;3.97;;
72037;SDS011;59900;50.788;12.904;2022-07-06T04:35:42;9.97;;;4.20;;
72037;SDS011;59900;50.788;12.904;2022-07-06T04:38:07;8.90;;;4.10;;
72037;SDS011;59900;50.788;12.904;2022-07-06T04:40:32;7.00;;;3.97;;
72037;SDS011;59900;50.788;12.904;2022-07-06T04:42:58;7.40;;;4.20;;
72037;SDS011;59900;50.788;12.904;2022-07-06T04:45:24;7.72;;;4.40;;
72037;SDS011;59900;50.788;12.904;2022-07-06T04:47:49;6.60;;;3.90;;
72037;SDS011;59900;50.788;12.904;2022-07-06T04:50:14;20.33;;;4.97;;
72037;SDS011;59900;50.788;12.904;2022-07-06T04:52:40;7.90;;;4.07;;
72037;SDS011;59900;50.788;12.904;2022-07-06T04:55:05;7.10;;;4.03;;
72037;SDS011;59900;50.788;12.904;2022-07-06T04:57:31;7.53;;;4.27;;
72037;SDS011;59900;50.788;12.904;2022-07-06T04:59:57;7.20;;;4.10;;
72037;SDS011;59900;50.788;12.904;2022-07-06T05:02:22;7.77;;;4.40;;
72037;SDS011;59900;50.788;12.904;2022-07-06T05:04:47;7.60;;;4.20;;
72037;SDS011;59900;50.788;12.904;2022-07-06T05:07:12;9.90;;;3.70;;
72037;SDS011;59900;50.788;12.904;2022-07-06T05:09:38;9.77;;;3.90;;
72037;SDS011;59900;50.788;12.904;2022-07-06T05:12:03;7.57;;;4.43;;
72037;SDS011;59900;50.788;12.904;2022-07-06T05:14:28;11.35;;;4.03;;
72037;SDS011;59900;50.788;12.904;2022-07-06T05:16:54;7.97;;;3.37;;
72037;SDS011;59900;50.788;12.904;2022-07-06T05:19:19;10.10;;;3.53;;
72037;SDS011;59900;50.788;12.904;2022-07-06T05:21:44;12.27;;;4.43;;
72037;SDS011;59900;50.788;12.904;2022-07-06T05:24:09;8.40;;;4.10;;
72037;SDS011;59900;50.788;12.904;2022-07-06T05:26:35;9.17;;;3.73;;
72037;SDS011;59900;50.788;12.904;2022-07-06T05:29:00;6.00;;;3.63;;
72037;SDS011;59900;50.788;12.904;2022-07-06T05:31:25;8.55;;;3.85;;
72037;SDS011;59900;50.788;12.904;2022-07-06T05:33:51;11.53;;;4.30;;
72037;SDS011;59900;50.788;12.904;2022-07-06T05:36:16;7.30;;;3.70;;
72037;SDS011;59900;50.788;12.904;2022-07-06T05:38:41;9.97;;;3.93;;
72037;SDS011;59900;50.788;12.904;2022-07-06T05:41:07;7.67;;;3.73;;
72037;SDS011;59900;50.788;12.904;2022-07-06T05:43:32;7.70;;;3.50;;
72037;SDS011;59900;50.788;12.904;2022-07-06T05:46:00;8.38;;;3.78;;
72037;SDS011;59900;50.788;12.904;2022-07-06T05:48:25;6.87;;;3.50;;
72037;SDS011;59900;50.788;12.904;2022-07-06T05:51:09;6.38;;;3.80;;
72037;SDS011;59900;50.788;12.904;2022-07-06T05:53:35;5.90;;;3.30;;
72037;SDS011;59900;50.788;12.904;2022-07-06T05:56:00;6.70;;;3.20;;
72037;SDS011;59900;50.788;12.904;2022-07-06T05:58:25;7.30;;;3.53;;
72037;SDS011;59900;50.788;12.904;2022-07-06T06:00:50;5.77;;;3.13;;
72037;SDS011;59900;50.788;12.904;2022-07-06T06:03:16;9.02;;;3.50;;
72037;SDS011;59900;50.788;12.904;2022-07-06T06:05:42;7.53;;;3.53;;
72037;SDS011;59900;50.788;12.904;2022-07-06T06:08:07;9.32;;;3.50;;
72037;SDS011;59900;50.788;12.904;2022-07-06T06:10:32;7.40;;;3.10;;
72037;SDS011;59900;50.788;12.904;2022-07-06T06:12:58;5.83;;;2.97;;
72037;SDS011;59900;50.788;12.904;2022-07-06T06:15:23;7.97;;;3.73;;
72037;SDS011;59900;50.788;12.904;2022-07-06T06:17:48;5.37;;;3.00;;
72037;SDS011;59900;50.788;12.904;2022-07-06T06:20:14;5.17;;;2.90;;
72037;SDS011;59900;50.788;12.904;2022-07-06T06:22:46;8.93;;;2.95;;
72037;SDS011;59900;50.788;12.904;2022-07-06T06:25:14;6.85;;;2.80;;
72037;SDS011;59900;50.788;12.904;2022-07-06T06:27:40;5.22;;;2.70;;
72037;SDS011;59900;50.788;12.904;2022-07-06T06:30:05;6.33;;;2.60;;
72037;SDS011;59900;50.788;12.904;2022-07-06T06:32:31;6.33;;;3.03;;
72037;SDS011;59900;50.788;12.904;2022-07-06T06:34:56;6.07;;;2.80;;
72037;SDS011;59900;50.788;12.904;2022-07-06T06:37:21;7.20;;;3.33;;
72037;SDS011;59900;50.788;12.904;2022-07-06T06:39:47;7.23;;;2.50;;
72037;SDS011;59900;50.788;12.904;2022-07-06T06:42:12;7.03;;;2.70;;
72037;SDS011;59900;50.788;12.904;2022-07-06T06:44:37;6.57;;;2.67;;
72037;SDS011;59900;50.788;12.904;2022-07-06T06:47:02;6.47;;;2.73;;
72037;SDS011;59900;50.788;12.904;2022-07-06T06:49:28;8.30;;;3.43;;
72037;SDS011;59900;50.788;12.904;2022-07-06T06:51:53;6.37;;;3.00;;
72037;SDS011;59900;50.788;12.904;2022-07-06T06:54:18;6.73;;;3.00;;
72037;SDS011;59900;50.788;12.904;2022-07-06T06:56:43;5.50;;;2.80;;
72037;SDS011;59900;50.788;12.904;2022-07-06T06:59:09;6.13;;;2.90;;
72037;SDS011;59900;50.788;12.904;2022-07-06T07:01:34;8.00;;;2.80;;
72037;SDS011;59900;50.788;12.904;2022-07-06T07:03:59;5.97;;;2.63;;
72037;SDS011;59900;50.788;12.904;2022-07-06T07:06:24;5.77;;;2.70;;
72037;SDS011;59900;50.788;12.904;2022-07-06T07:08:50;5.63;;;2.80;;
72037;SDS011;59900;50.788;12.904;2022-07-06T07:11:15;6.87;;;2.70;;
72037;SDS011;59900;50.788;12.904;2022-07-06T07:13:40;7.57;;;3.50;;
72037;SDS011;59900;50.788;12.904;2022-07-06T07:16:06;5.17;;;2.40;;
72037;SDS011;59900;50.788;12.904;2022-07-06T07:18:31;6.97;;;2.70;;
72037;SDS011;59900;50.788;12.904;2022-07-06T07:20:56;6.13;;;2.80;;
72037;SDS011;59900;50.788;12.904;2022-07-06T07:23:22;5.67;;;2.53;;
72037;SDS011;59900;50.788;12.904;2022-07-06T07:25:47;6.77;;;2.40;;
72037;SDS011;59900;50.788;12.904;2022-07-06T07:28:12;7.60;;;2.77;;
72037;SDS011;59900;50.788;12.904;2022-07-06T07:30:38;5.67;;;2.90;;
72037;SDS011;59900;50.788;12.904;2022-07-06T07:33:03;7.97;;;2.70;;
72037;SDS011;59900;50.788;12.904;2022-07-06T07:35:28;5.30;;;2.40;;
72037;SDS011;59900;50.788;12.904;2022-07-06T07:37:53;7.07;;;2.87;;
72037;SDS011;59900;50.788;12.904;2022-07-06T07:40:19;6.57;;;2.83;;
72037;SDS011;59900;50.788;12.904;2022-07-06T07:42:44;8.13;;;2.73;;
72037;SDS011;59900;50.788;12.904;2022-07-06T07:45:10;5.03;;;2.40;;
72037;SDS011;59900;50.788;12.904;2022-07-06T07:47:36;7.77;;;2.60;;
72037;SDS011;59900;50.788;12.904;2022-07-06T07:50:01;7.40;;;2.80;;
72037;SDS011;59900;50.788;12.904;2022-07-06T07:52:26;5.97;;;2.40;;
72037;SDS011;59900;50.788;12.904;2022-07-06T07:54:51;8.00;;;2.70;;
72037;SDS011;59900;50.788;12.904;2022-07-06T07:57:17;7.20;;;2.50;;
72037;SDS011;59900;50.788;12.904;2022-07-06T07:59:42;4.73;;;2.53;;
72037;SDS011;59900;50.788;12.904;2022-07-06T08:02:07;6.33;;;3.10;;
72037;SDS011;59900;50.788;12.904;2022-07-06T08:04:33;4.57;;;2.30;;
72037;SDS011;59900;50.788;12.904;2022-07-06T08:06:58;5.22;;;2.05;;
72037;SDS011;59900;50.788;12.904;2022-07-06T08:09:24;6.97;;;2.67;;
72037;SDS011;59900;50.788;12.904;2022-07-06T08:11:49;7.30;;;2.90;;
72037;SDS011;59900;50.788;12.904;2022-07-06T08:14:15;5.30;;;2.43;;
72037;SDS011;59900;50.788;12.904;2022-07-06T08:16:41;5.18;;;2.55;;
72037;SDS011;59900;50.788;12.904;2022-07-06T08:19:07;5.87;;;2.30;;
72037;SDS011;59900;50.788;12.904;2022-07-06T08:21:32;5.60;;;2.53;;
72037;SDS011;59900;50.788;12.904;2022-07-06T08:23:57;7.60;;;3.43;;
72037;SDS011;59900;50.788;12.904;2022-07-06T08:26:24;8.45;;;2.70;;
72037;SDS011;59900;50.788;12.904;2022-07-06T08:28:50;5.87;;;2.27;;
72037;SDS011;59900;50.788;12.904;2022-07-06T08:31:15;5.67;;;2.40;;
72037;SDS011;59900;50.788;12.904;2022-07-06T08:33:40;6.47;;;2.22;;
72037;SDS011;59900;50.788;12.904;2022-07-06T08:36:06;6.30;;;2.50;;
72037;SDS011;59900;50.788;12.904;2022-07-06T08:38:31;6.57;;;2.63;;
72037;SDS011;59900;50.788;12.904;2022-07-06T08:40:56;4.93;;;2.40;;
72037;SDS011;59900;50.788;12.904;2022-07-06T08:43:23;6.20;;;2.47;;
72037;SDS011;59900;50.788;12.904;2022-07-06T08:45:49;6.60;;;2.60;;
72037;SDS011;59900;50.788;12.904;2022-07-06T08:48:14;5.03;;;2.10;;
72037;SDS011;59900;50.788;12.904;2022-07-06T08:50:40;5.22;;;2.20;;
72037;SDS011;59900;50.788;12.904;2022-07-06T08:53:06;10.23;;;3.93;;
72037;SDS011;59900;50.788;12.904;2022-07-06T08:55:31;5.20;;;2.20;;
72037;SDS011;59900;50.788;12.904;2022-07-06T08:57:58;7.18;;;2.70;;
72037;SDS011;59900;50.788;12.904;2022-07-06T09:00:24;7.28;;;2.20;;
72037;SDS011;59900;50.788;12.904;2022-07-06T09:02:50;6.80;;;2.23;;
72037;SDS011;59900;50.788;12.904;2022-07-06T09:05:16;6.80;;;2.40;;
72037;SDS011;59900;50.788;12.904;2022-07-06T09:07:42;4.55;;;2.47;;
72037;SDS011;59900;50.788;12.904;2022-07-06T09:10:09;4.18;;;2.10;;
72037;SDS011;59900;50.788;12.904;2022-07-06T09:12:34;5.03;;;2.33;;
72037;SDS011;59900;50.788;12.904;2022-07-06T09:15:00;6.07;;;2.33;;
72037;SDS011;59900;50.788;12.904;2022-07-06T09:17:25;6.80;;;2.07;;
72037;SDS011;59900;50.788;12.904;2022-07-06T09:19:52;6.68;;;2.33;;
72037;SDS011;59900;50.788;12.904;2022-07-06T09:22:28;6.63;;;2.10;;
72037;SDS011;59900;50.788;12.904;2022-07-06T09:25:11;5.47;;;2.20;;
72037;SDS011;59900;50.788;12.904;2022-07-06T09:27:39;5.10;;;2.50;;
72037;SDS011;59900;50.788;12.904;2022-07-06T09:30:09;4.13;;;2.00;;
72037;SDS011;59900;50.788;12.904;2022-07-06T09:32:42;4.53;;;2.22;;
72037;SDS011;59900;50.788;12.904;2022-07-06T09:35:09;5.25;;;2.60;;
72037;SDS011;59900;50.788;12.904;2022-07-06T09:37:45;5.20;;;2.47;;
72037;SDS011;59900;50.788;12.904;2022-07-06T09:40:16;5.10;;;2.20;;
72037;SDS011;59900;50.788;12.904;2022-07-06T09:42:43;5.15;;;2.20;;
72037;SDS011;59900;50.788;12.904;2022-07-06T09:45:08;4.10;;;2.10;;
72037;SDS011;59900;50.788;12.904;2022-07-06T09:47:34;6.82;;;2.35;;
72037;SDS011;59900;50.788;12.904;2022-07-06T09:49:59;7.83;;;3.63;;
72037;SDS011;59900;50.788;12.904;2022-07-06T09:52:25;5.57;;;2.05;;
72037;SDS011;59900;50.788;12.904;2022-07-06T09:54:50;8.17;;;2.57;;
72037;SDS011;59900;50.788;12.904;2022-07-06T09:57:16;4.33;;;2.20;;
72037;SDS011;59900;50.788;12.904;2022-07-06T09:59:41;3.87;;;2.00;;
72037;SDS011;59900;50.788;12.904;2022-07-06T10:02:07;5.63;;;2.30;;
72037;SDS011;59900;50.788;12.904;2022-07-06T10:04:33;6.90;;;2.40;;
72037;SDS011;59900;50.788;12.904;2022-07-06T10:06:58;5.07;;;2.42;;
72037;SDS011;59900;50.788;12.904;2022-07-06T10:09:25;4.07;;;2.20;;
72037;SDS011;59900;50.788;12.904;2022-07-06T10:11:56;6.00;;;2.47;;
72037;SDS011;59900;50.788;12.904;2022-07-06T10:14:25;4.95;;;3.13;;
72037;SDS011;59900;50.788;12.904;2022-07-06T10:16:53;5.50;;;3.10;;
72037;SDS011;59900;50.788;12.904;2022-07-06T10:19:20;4.80;;;2.70;;
72037;SDS011;59900;50.788;12.904;2022-07-06T10:21:46;6.83;;;3.23;;
72037;SDS011;59900;50.788;12.904;2022-07-06T10:24:12;6.55;;;3.53;;
72037;SDS011;59900;50.788;12.904;2022-07-06T10:26:39;9.98;;;3.10;;
72037;SDS011;59900;50.788;12.904;2022-07-06T10:29:05;5.93;;;2.72;;
72037;SDS011;59900;50.788;12.904;2022-07-06T10:31:31;5.72;;;3.40;;
72037;SDS011;59900;50.788;12.904;2022-07-06T10:34:01;10.90;;;4.30;;
72037;SDS011;59900;50.788;12.904;2022-07-06T10:36:29;10.05;;;3.03;;
72037;SDS011;59900;50.788;12.904;2022-07-06T10:38:55;7.73;;;3.23;;
72037;SDS011;59900;50.788;12.904;2022-07-06T10:41:31;5.95;;;3.35;;
72037;SDS011;59900;50.788;12.904;2022-07-06T10:43:57;5.93;;;2.92;;
72037;SDS011;59900;50.788;12.904;2022-07-06T10:46:23;8.40;;;3.28;;
72037;SDS011;59900;50.788;12.904;2022-07-06T10:48:53;7.90;;;3.90;;
72037;SDS011;59900;50.788;12.904;2022-07-06T10:51:23;6.80;;;3.42;;
72037;SDS011;59900;50.788;12.904;2022-07-06T10:53:56;5.63;;;3.53;;
72037;SDS011;59900;50.788;12.904;2022-07-06T10:59:20;5.40;;;3.30;;
72037;SDS011;59900;50.788;12.904;2022-07-06T11:04:38;5.57;;;3.30;;
72037;SDS011;59900;50.788;12.904;2022-07-06T11:07:11;6.43;;;3.23;;
72037;SDS011;59900;50.788;12.904;2022-07-06T11:09:37;6.60;;;3.45;;
72037;SDS011;59900;50.788;12.904;2022-07-06T11:14:43;5.32;;;3.25;;
72037;SDS011;59900;50.788;12.904;2022-07-06T11:17:09;9.13;;;3.58;;
72037;SDS011;59900;50.788;12.904;2022-07-06T11:19:35;6.40;;;3.50;;
72037;SDS011;59900;50.788;12.904;2022-07-06T11:22:07;6.33;;;3.30;;
72037;SDS011;59900;50.788;12.904;2022-07-06T11:24:35;6.13;;;3.28;;
72037;SDS011;59900;50.788;12.904;2022-07-06T11:27:03;7.20;;;2.97;;
72037;SDS011;59900;50.788;12.904;2022-07-06T11:29:30;6.25;;;3.40;;
72037;SDS011;59900;50.788;12.904;2022-07-06T11:31:59;5.87;;;2.93;;
72037;SDS011;59900;50.788;12.904;2022-07-06T11:34:32;6.83;;;3.40;;
72037;SDS011;59900;50.788;12.904;2022-07-06T11:37:00;5.05;;;3.20;;
72037;SDS011;59900;50.788;12.904;2022-07-06T11:39:35;5.00;;;2.90;;
72037;SDS011;59900;50.788;12.904;2022-07-06T11:42:02;5.60;;;3.08;;
72037;SDS011;59900;50.788;12.904;2022-07-06T11:44:31;7.43;;;3.33;;
72037;SDS011;59900;50.788;12.904;2022-07-06T11:46:56;6.07;;;3.20;;
72037;SDS011;59900;50.788;12.904;2022-07-06T11:49:25;5.80;;;3.00;;
72037;SDS011;59900;50.788;12.904;2022-07-06T11:51:50;6.80;;;3.00;;
72037;SDS011;59900;50.788;12.904;2022-07-06T11:54:19;10.63;;;3.77;;
72037;SDS011;59900;50.788;12.904;2022-07-06T11:56:56;6.55;;;4.07;;
72037;SDS011;59900;50.788;12.904;2022-07-06T12:04:30;7.37;;;3.83;;
72037;SDS011;59900;50.788;12.904;2022-07-06T12:07:01;4.85;;;2.80;;
72037;SDS011;59900;50.788;12.904;2022-07-06T12:09:33;5.70;;;2.58;;
72037;SDS011;59900;50.788;12.904;2022-07-06T12:12:00;11.10;;;2.55;;
72037;SDS011;59900;50.788;12.904;2022-07-06T12:14:29;6.47;;;2.83;;
72037;SDS011;59900;50.788;12.904;2022-07-06T12:16:55;4.37;;;2.23;;
72037;SDS011;59900;50.788;12.904;2022-07-06T12:19:21;5.13;;;2.35;;
72037;SDS011;59900;50.788;12.904;2022-07-06T12:21:48;4.90;;;2.78;;
72037;SDS011;59900;50.788;12.904;2022-07-06T12:24:21;6.53;;;2.50;;
72037;SDS011;59900;50.788;12.904;2022-07-06T12:26:52;5.05;;;2.63;;
72037;SDS011;59900;50.788;12.904;2022-07-06T12:29:18;5.18;;;2.58;;
72037;SDS011;59900;50.788;12.904;2022-07-06T12:34:21;5.85;;;2.70;;
72037;SDS011;59900;50.788;12.904;2022-07-06T12:36:52;5.30;;;2.40;;
72037;SDS011;59900;50.788;12.904;2022-07-06T12:39:22;6.22;;;2.50;;
72037;SDS011;59900;50.788;12.904;2022-07-06T12:44:21;5.88;;;2.20;;
72037;SDS011;59900;50.788;12.904;2022-07-06T12:46:48;5.90;;;2.33;;
72037;SDS011;59900;50.788;12.904;2022-07-06T12:51:48;4.68;;;2.63;;
72037;SDS011;59900;50.788;12.904;2022-07-06T12:54:14;5.47;;;2.30;;
72037;SDS011;59900;50.788;12.904;2022-07-06T12:56:55;4.70;;;2.20;;
72037;SDS011;59900;50.788;12.904;2022-07-06T12:59:42;6.68;;;2.13;;
72037;SDS011;59900;50.788;12.904;2022-07-06T13:02:20;7.00;;;2.20;;
72037;SDS011;59900;50.788;12.904;2022-07-06T13:05:02;6.60;;;2.38;;
72037;SDS011;59900;50.788;12.904;2022-07-06T13:07:28;6.50;;;2.45;;
72037;SDS011;59900;50.788;12.904;2022-07-06T13:09:56;5.78;;;2.60;;
72037;SDS011;59900;50.788;12.904;2022-07-06T13:12:22;5.10;;;2.80;;
72037;SDS011;59900;50.788;12.904;2022-07-06T13:14:48;7.43;;;3.08;;
72037;SDS011;59900;50.788;12.904;2022-07-06T13:17:14;5.93;;;2.53;;
72037;SDS011;59900;50.788;12.904;2022-07-06T13:19:39;6.88;;;2.65;;
72037;SDS011;59900;50.788;12.904;2022-07-06T13:22:05;5.50;;;2.23;;
72037;SDS011;59900;50.788;12.904;2022-07-06T13:24:30;5.90;;;2.27;;
72037;SDS011;59900;50.788;12.904;2022-07-06T13:27:04;6.83;;;2.63;;
72037;SDS011;59900;50.788;12.904;2022-07-06T13:29:32;6.05;;;2.38;;
72037;SDS011;59900;50.788;12.904;2022-07-06T13:31:58;3.90;;;2.10;;
72037;SDS011;59900;50.788;12.904;2022-07-06T13:34:23;6.57;;;2.30;;
72037;SDS011;59900;50.788;12.904;2022-07-06T13:36:49;4.97;;;1.90;;
72037;SDS011;59900;50.788;12.904;2022-07-06T13:39:14;6.73;;;3.23;;
72037;SDS011;59900;50.788;12.904;2022-07-06T13:41:41;6.07;;;2.70;;
72037;SDS011;59900;50.788;12.904;2022-07-06T13:44:06;5.67;;;2.70;;
72037;SDS011;59900;50.788;12.904;2022-07-06T13:46:32;5.45;;;2.38;;
72037;SDS011;59900;50.788;12.904;2022-07-06T13:48:57;5.23;;;2.00;;
72037;SDS011;59900;50.788;12.904;2022-07-06T13:51:23;5.72;;;2.10;;
72037;SDS011;59900;50.788;12.904;2022-07-06T13:53:50;6.00;;;2.40;;
72037;SDS011;59900;50.788;12.904;2022-07-06T13:56:15;8.80;;;2.70;;
72037;SDS011;59900;50.788;12.904;2022-07-06T13:58:41;8.48;;;3.88;;
72037;SDS011;59900;50.788;12.904;2022-07-06T14:01:06;6.70;;;2.23;;
72037;SDS011;59900;50.788;12.904;2022-07-06T14:03:32;5.33;;;2.10;;
72037;SDS011;59900;50.788;12.904;2022-07-06T14:05:58;6.77;;;2.00;;
72037;SDS011;59900;50.788;12.904;2022-07-06T14:08:24;5.05;;;2.42;;
72037;SDS011;59900;50.788;12.904;2022-07-06T14:10:50;4.25;;;2.17;;
72037;SDS011;59900;50.788;12.904;2022-07-06T14:13:16;5.03;;;2.40;;
72037;SDS011;59900;50.788;12.904;2022-07-06T14:15:41;5.43;;;2.00;;
72037;SDS011;59900;50.788;12.904;2022-07-06T14:18:07;6.35;;;2.30;;
72037;SDS011;59900;50.788;12.904;2022-07-06T14:20:33;5.13;;;2.03;;
72037;SDS011;59900;50.788;12.904;2022-07-06T14:22:58;4.27;;;2.17;;
72037;SDS011;59900;50.788;12.904;2022-07-06T14:25:23;3.70;;;2.10;;
72037;SDS011;59900;50.788;12.904;2022-07-06T14:27:48;4.13;;;2.00;;
72037;SDS011;59900;50.788;12.904;2022-07-06T14:30:14;5.87;;;2.10;;
72037;SDS011;59900;50.788;12.904;2022-07-06T14:32:39;5.13;;;1.83;;
72037;SDS011;59900;50.788;12.904;2022-07-06T14:35:04;4.03;;;2.00;;
72037;SDS011;59900;50.788;12.904;2022-07-06T14:37:30;4.07;;;2.20;;
72037;SDS011;59900;50.788;12.904;2022-07-06T14:39:55;5.30;;;2.07;;
72037;SDS011;59900;50.788;12.904;2022-07-06T14:42:20;7.60;;;2.10;;
72037;SDS011;59900;50.788;12.904;2022-07-06T14:44:45;5.33;;;2.00;;
72037;SDS011;59900;50.788;12.904;2022-07-06T14:47:11;4.23;;;2.10;;
72037;SDS011;59900;50.788;12.904;2022-07-06T14:49:36;4.43;;;1.77;;